sensor_id;sensor_type;location;lat;lon;timestamp;P1;durP1;ratioP1;P2;durP2;ratioP2
19191;SDS011;9728;48.194;16.346;2024-02-26T00:01:47;3.17;;;1.80;;
19191;SDS011;9728;48.194;16.346;2024-02-26T00:06:50;3.67;;;1.58;;
19191;SDS011;9728;48.194;16.346;2024-02-26T00:11:56;1.85;;;1.15;;
19191;SDS011;9728;48.194;16.346;2024-02-26T00:17:02;1.40;;;1.20;;
19191;SDS011;9728;48.194;16.346;2024-02-26T00:22:05;1.55;;;1.00;;
19191;SDS011;9728;48.194;16.346;2024-02-26T00:27:09;1.83;;;1.20;;
19191;SDS011;9728;48.194;16.346;2024-02-26T00:32:14;2.63;;;1.15;;
19191;SDS011;9728;48.194;16.346;2024-02-26T00:37:18;2.65;;;1.23;;
19191;SDS011;9728;48.194;16.346;2024-02-26T00:42:21;2.95;;;1.50;;
19191;SDS011;9728;48.194;16.346;2024-02-26T00:47:26;2.20;;;1.40;;
19191;SDS011;9728;48.194;16.346;2024-02-26T00:52:30;1.42;;;1.10;;
19191;SDS011;9728;48.194;16.346;2024-02-26T00:57:33;4.75;;;1.63;;
19191;SDS011;9728;48.194;16.346;2024-02-26T01:02:38;1.40;;;1.10;;
19191;SDS011;9728;48.194;16.346;2024-02-26T01:07:43;1.92;;;1.33;;
19191;SDS011;9728;48.194;16.346;2024-02-26T01:12:47;1.37;;;1.13;;
19191;SDS011;9728;48.194;16.346;2024-02-26T01:17:52;3.20;;;1.35;;
19191;SDS011;9728;48.194;16.346;2024-02-26T01:22:55;2.78;;;1.52;;
19191;SDS011;9728;48.194;16.346;2024-02-26T01:27:58;2.47;;;1.42;;
19191;SDS011;9728;48.194;16.346;2024-02-26T01:33:03;2.38;;;1.48;;
19191;SDS011;9728;48.194;16.346;2024-02-26T01:38:07;1.77;;;1.48;;
19191;SDS011;9728;48.194;16.346;2024-02-26T01:43:10;2.43;;;1.47;;
19191;SDS011;9728;48.194;16.346;2024-02-26T01:48:15;1.60;;;1.30;;
19191;SDS011;9728;48.194;16.346;2024-02-26T01:53:19;2.27;;;1.50;;
19191;SDS011;9728;48.194;16.346;2024-02-26T01:58:23;3.20;;;1.77;;
19191;SDS011;9728;48.194;16.346;2024-02-26T02:03:28;2.17;;;1.60;;
19191;SDS011;9728;48.194;16.346;2024-02-26T02:08:33;3.78;;;1.50;;
19191;SDS011;9728;48.194;16.346;2024-02-26T02:13:37;4.17;;;1.70;;
19191;SDS011;9728;48.194;16.346;2024-02-26T02:18:42;3.33;;;1.63;;
19191;SDS011;9728;48.194;16.346;2024-02-26T02:23:47;2.93;;;1.60;;
19191;SDS011;9728;48.194;16.346;2024-02-26T02:28:51;2.67;;;1.20;;
19191;SDS011;9728;48.194;16.346;2024-02-26T02:33:55;1.90;;;1.40;;
19191;SDS011;9728;48.194;16.346;2024-02-26T02:39:01;2.60;;;1.60;;
19191;SDS011;9728;48.194;16.346;2024-02-26T02:44:05;2.27;;;1.47;;
19191;SDS011;9728;48.194;16.346;2024-02-26T02:49:08;2.83;;;1.25;;
19191;SDS011;9728;48.194;16.346;2024-02-26T02:54:14;2.13;;;1.23;;
19191;SDS011;9728;48.194;16.346;2024-02-26T02:59:17;2.00;;;1.30;;
19191;SDS011;9728;48.194;16.346;2024-02-26T03:04:20;2.17;;;1.40;;
19191;SDS011;9728;48.194;16.346;2024-02-26T03:09:25;2.57;;;1.67;;
19191;SDS011;9728;48.194;16.346;2024-02-26T03:14:29;1.70;;;1.23;;
19191;SDS011;9728;48.194;16.346;2024-02-26T03:19:32;3.00;;;1.60;;
19191;SDS011;9728;48.194;16.346;2024-02-26T03:24:37;1.73;;;1.27;;
19191;SDS011;9728;48.194;16.346;2024-02-26T03:29:41;2.07;;;1.40;;
19191;SDS011;9728;48.194;16.346;2024-02-26T03:34:44;2.77;;;1.50;;
19191;SDS011;9728;48.194;16.346;2024-02-26T03:39:49;2.53;;;1.10;;
19191;SDS011;9728;48.194;16.346;2024-02-26T03:44:52;2.07;;;1.20;;
19191;SDS011;9728;48.194;16.346;2024-02-26T03:49:56;1.43;;;1.10;;
19191;SDS011;9728;48.194;16.346;2024-02-26T03:55:02;2.07;;;1.17;;
19191;SDS011;9728;48.194;16.346;2024-02-26T04:00:06;3.50;;;1.30;;
19191;SDS011;9728;48.194;16.346;2024-02-26T04:05:13;1.40;;;1.17;;
19191;SDS011;9728;48.194;16.346;2024-02-26T04:10:18;2.00;;;1.20;;
19191;SDS011;9728;48.194;16.346;2024-02-26T04:15:22;2.53;;;1.20;;
19191;SDS011;9728;48.194;16.346;2024-02-26T04:20:25;1.77;;;1.40;;
19191;SDS011;9728;48.194;16.346;2024-02-26T04:25:30;1.67;;;0.83;;
19191;SDS011;9728;48.194;16.346;2024-02-26T04:30:33;3.40;;;1.38;;
19191;SDS011;9728;48.194;16.346;2024-02-26T04:35:37;3.53;;;1.60;;
19191;SDS011;9728;48.194;16.346;2024-02-26T04:40:42;1.93;;;1.23;;
19191;SDS011;9728;48.194;16.346;2024-02-26T04:45:45;1.90;;;1.20;;
19191;SDS011;9728;48.194;16.346;2024-02-26T04:50:49;3.20;;;1.47;;
19191;SDS011;9728;48.194;16.346;2024-02-26T04:55:54;1.73;;;1.60;;
19191;SDS011;9728;48.194;16.346;2024-02-26T05:00:57;3.07;;;1.60;;
19191;SDS011;9728;48.194;16.346;2024-02-26T05:06:01;2.10;;;1.43;;
19191;SDS011;9728;48.194;16.346;2024-02-26T05:11:06;1.97;;;1.40;;
19191;SDS011;9728;48.194;16.346;2024-02-26T05:16:09;2.63;;;1.60;;
19191;SDS011;9728;48.194;16.346;2024-02-26T05:21:12;2.70;;;1.90;;
19191;SDS011;9728;48.194;16.346;2024-02-26T05:26:20;2.33;;;1.87;;
19191;SDS011;9728;48.194;16.346;2024-02-26T05:31:24;2.50;;;1.57;;
19191;SDS011;9728;48.194;16.346;2024-02-26T05:36:27;3.57;;;1.53;;
19191;SDS011;9728;48.194;16.346;2024-02-26T05:41:36;2.27;;;1.50;;
19191;SDS011;9728;48.194;16.346;2024-02-26T05:46:40;2.47;;;1.33;;
19191;SDS011;9728;48.194;16.346;2024-02-26T05:51:43;2.73;;;1.97;;
19191;SDS011;9728;48.194;16.346;2024-02-26T05:56:48;4.27;;;1.37;;
19191;SDS011;9728;48.194;16.346;2024-02-26T06:01:52;2.33;;;1.60;;
19191;SDS011;9728;48.194;16.346;2024-02-26T06:06:55;2.57;;;1.73;;
19191;SDS011;9728;48.194;16.346;2024-02-26T06:12:00;3.37;;;1.93;;
19191;SDS011;9728;48.194;16.346;2024-02-26T06:17:04;2.58;;;1.80;;
19191;SDS011;9728;48.194;16.346;2024-02-26T06:22:08;3.03;;;1.80;;
19191;SDS011;9728;48.194;16.346;2024-02-26T06:27:13;3.30;;;1.80;;
19191;SDS011;9728;48.194;16.346;2024-02-26T06:32:17;3.33;;;1.67;;
19191;SDS011;9728;48.194;16.346;2024-02-26T06:37:20;2.25;;;1.52;;
19191;SDS011;9728;48.194;16.346;2024-02-26T06:42:25;2.63;;;1.83;;
19191;SDS011;9728;48.194;16.346;2024-02-26T06:47:28;3.07;;;1.73;;
19191;SDS011;9728;48.194;16.346;2024-02-26T06:52:32;1.80;;;1.50;;
19191;SDS011;9728;48.194;16.346;2024-02-26T06:57:37;4.03;;;2.67;;
19191;SDS011;9728;48.194;16.346;2024-02-26T07:02:40;2.37;;;1.60;;
19191;SDS011;9728;48.194;16.346;2024-02-26T07:07:44;2.60;;;1.73;;
19191;SDS011;9728;48.194;16.346;2024-02-26T07:12:49;3.43;;;1.77;;
19191;SDS011;9728;48.194;16.346;2024-02-26T07:17:53;3.88;;;1.90;;
19191;SDS011;9728;48.194;16.346;2024-02-26T07:22:56;3.17;;;1.90;;
19191;SDS011;9728;48.194;16.346;2024-02-26T07:28:01;3.08;;;2.17;;
19191;SDS011;9728;48.194;16.346;2024-02-26T07:33:05;3.03;;;1.95;;
19191;SDS011;9728;48.194;16.346;2024-02-26T07:38:09;2.85;;;1.75;;
19191;SDS011;9728;48.194;16.346;2024-02-26T07:43:34;2.55;;;1.58;;
19191;SDS011;9728;48.194;16.346;2024-02-26T07:48:37;2.90;;;1.83;;
19191;SDS011;9728;48.194;16.346;2024-02-26T07:53:41;3.65;;;2.30;;
19191;SDS011;9728;48.194;16.346;2024-02-26T07:58:47;4.17;;;1.87;;
19191;SDS011;9728;48.194;16.346;2024-02-26T08:03:50;3.30;;;1.55;;
19191;SDS011;9728;48.194;16.346;2024-02-26T08:08:54;1.98;;;1.60;;
19191;SDS011;9728;48.194;16.346;2024-02-26T08:13:59;2.90;;;1.75;;
19191;SDS011;9728;48.194;16.346;2024-02-26T08:19:02;4.40;;;2.23;;
19191;SDS011;9728;48.194;16.346;2024-02-26T08:24:05;2.70;;;1.88;;
19191;SDS011;9728;48.194;16.346;2024-02-26T08:29:10;2.75;;;2.00;;
19191;SDS011;9728;48.194;16.346;2024-02-26T08:34:14;2.17;;;1.90;;
19191;SDS011;9728;48.194;16.346;2024-02-26T08:39:18;2.90;;;1.98;;
19191;SDS011;9728;48.194;16.346;2024-02-26T08:44:23;4.65;;;2.03;;
19191;SDS011;9728;48.194;16.346;2024-02-26T08:49:28;2.55;;;1.80;;
19191;SDS011;9728;48.194;16.346;2024-02-26T08:54:31;2.47;;;1.92;;
19191;SDS011;9728;48.194;16.346;2024-02-26T08:59:37;2.63;;;1.83;;
19191;SDS011;9728;48.194;16.346;2024-02-26T09:04:41;4.47;;;2.10;;
19191;SDS011;9728;48.194;16.346;2024-02-26T09:09:44;2.72;;;1.08;;
19191;SDS011;9728;48.194;16.346;2024-02-26T09:14:49;3.70;;;1.55;;
19191;SDS011;9728;48.194;16.346;2024-02-26T09:19:53;1.55;;;1.45;;
19191;SDS011;9728;48.194;16.346;2024-02-26T09:24:57;2.30;;;1.33;;
19191;SDS011;9728;48.194;16.346;2024-02-26T09:30:02;3.45;;;1.70;;
19191;SDS011;9728;48.194;16.346;2024-02-26T09:35:07;1.90;;;1.15;;
19191;SDS011;9728;48.194;16.346;2024-02-26T09:40:11;2.42;;;1.08;;
19191;SDS011;9728;48.194;16.346;2024-02-26T09:45:19;1.85;;;1.20;;
19191;SDS011;9728;48.194;16.346;2024-02-26T09:50:25;2.25;;;1.20;;
19191;SDS011;9728;48.194;16.346;2024-02-26T09:55:28;1.70;;;1.20;;
19191;SDS011;9728;48.194;16.346;2024-02-26T10:00:34;1.00;;;0.80;;
19191;SDS011;9728;48.194;16.346;2024-02-26T10:05:41;2.58;;;1.23;;
19191;SDS011;9728;48.194;16.346;2024-02-26T10:10:47;2.42;;;0.80;;
19191;SDS011;9728;48.194;16.346;2024-02-26T10:15:53;1.25;;;0.90;;
19191;SDS011;9728;48.194;16.346;2024-02-26T10:20:59;1.23;;;0.90;;
19191;SDS011;9728;48.194;16.346;2024-02-26T10:26:03;1.40;;;1.00;;
19191;SDS011;9728;48.194;16.346;2024-02-26T10:31:10;1.45;;;1.00;;
19191;SDS011;9728;48.194;16.346;2024-02-26T10:36:14;1.08;;;0.90;;
19191;SDS011;9728;48.194;16.346;2024-02-26T10:41:18;1.45;;;0.80;;
19191;SDS011;9728;48.194;16.346;2024-02-26T10:46:24;1.83;;;0.90;;
19191;SDS011;9728;48.194;16.346;2024-02-26T10:51:29;1.88;;;1.02;;
19191;SDS011;9728;48.194;16.346;2024-02-26T10:56:34;1.23;;;0.80;;
19191;SDS011;9728;48.194;16.346;2024-02-26T11:01:40;1.33;;;0.98;;
19191;SDS011;9728;48.194;16.346;2024-02-26T11:06:48;1.65;;;1.20;;
19191;SDS011;9728;48.194;16.346;2024-02-26T11:11:53;2.15;;;1.10;;
19191;SDS011;9728;48.194;16.346;2024-02-26T11:16:58;1.10;;;1.00;;
19191;SDS011;9728;48.194;16.346;2024-02-26T11:22:03;1.00;;;0.70;;
19191;SDS011;9728;48.194;16.346;2024-02-26T11:27:22;0.98;;;0.85;;
19191;SDS011;9728;48.194;16.346;2024-02-26T11:32:33;1.00;;;0.80;;
19191;SDS011;9728;48.194;16.346;2024-02-26T11:37:37;1.08;;;0.77;;
19191;SDS011;9728;48.194;16.346;2024-02-26T11:42:44;0.50;;;0.50;;
19191;SDS011;9728;48.194;16.346;2024-02-26T11:47:56;0.88;;;0.63;;
19191;SDS011;9728;48.194;16.346;2024-02-26T11:53:19;2.40;;;0.70;;
19191;SDS011;9728;48.194;16.346;2024-02-26T11:58:23;0.75;;;0.68;;
19191;SDS011;9728;48.194;16.346;2024-02-26T12:03:27;1.30;;;0.55;;
19191;SDS011;9728;48.194;16.346;2024-02-26T12:08:34;1.15;;;0.60;;
19191;SDS011;9728;48.194;16.346;2024-02-26T12:13:38;0.77;;;0.73;;
19191;SDS011;9728;48.194;16.346;2024-02-26T12:18:44;1.10;;;0.82;;
19191;SDS011;9728;48.194;16.346;2024-02-26T12:23:49;0.77;;;0.70;;
19191;SDS011;9728;48.194;16.346;2024-02-26T12:28:53;1.98;;;0.70;;
19191;SDS011;9728;48.194;16.346;2024-02-26T12:33:57;0.65;;;0.57;;
19191;SDS011;9728;48.194;16.346;2024-02-26T12:39:02;0.70;;;0.60;;
19191;SDS011;9728;48.194;16.346;2024-02-26T12:44:07;0.82;;;0.55;;
19191;SDS011;9728;48.194;16.346;2024-02-26T12:49:14;0.70;;;0.55;;
19191;SDS011;9728;48.194;16.346;2024-02-26T12:54:19;1.95;;;1.10;;
19191;SDS011;9728;48.194;16.346;2024-02-26T12:59:23;1.35;;;0.50;;
19191;SDS011;9728;48.194;16.346;2024-02-26T13:04:29;0.63;;;0.63;;
19191;SDS011;9728;48.194;16.346;2024-02-26T13:09:34;1.15;;;0.70;;
19191;SDS011;9728;48.194;16.346;2024-02-26T13:14:38;2.05;;;0.70;;
19191;SDS011;9728;48.194;16.346;2024-02-26T13:19:50;0.77;;;0.73;;
19191;SDS011;9728;48.194;16.346;2024-02-26T13:24:54;0.90;;;0.60;;
19191;SDS011;9728;48.194;16.346;2024-02-26T13:30:04;0.70;;;0.60;;
19191;SDS011;9728;48.194;16.346;2024-02-26T13:35:13;1.02;;;0.60;;
19191;SDS011;9728;48.194;16.346;2024-02-26T13:40:16;0.55;;;0.52;;
19191;SDS011;9728;48.194;16.346;2024-02-26T13:45:20;1.10;;;0.63;;
19191;SDS011;9728;48.194;16.346;2024-02-26T13:50:25;1.45;;;0.85;;
19191;SDS011;9728;48.194;16.346;2024-02-26T13:55:29;0.90;;;0.60;;
19191;SDS011;9728;48.194;16.346;2024-02-26T14:00:33;2.80;;;0.60;;
19191;SDS011;9728;48.194;16.346;2024-02-26T14:05:38;0.70;;;0.70;;
19191;SDS011;9728;48.194;16.346;2024-02-26T14:10:46;0.98;;;0.55;;
19191;SDS011;9728;48.194;16.346;2024-02-26T14:15:49;1.67;;;0.70;;
19191;SDS011;9728;48.194;16.346;2024-02-26T14:20:54;0.88;;;0.55;;
19191;SDS011;9728;48.194;16.346;2024-02-26T14:25:58;1.20;;;0.60;;
19191;SDS011;9728;48.194;16.346;2024-02-26T14:31:03;1.85;;;0.80;;
19191;SDS011;9728;48.194;16.346;2024-02-26T14:36:08;0.82;;;0.57;;
19191;SDS011;9728;48.194;16.346;2024-02-26T14:41:12;1.98;;;1.10;;
19191;SDS011;9728;48.194;16.346;2024-02-26T14:46:16;1.75;;;0.80;;
19191;SDS011;9728;48.194;16.346;2024-02-26T14:51:21;1.10;;;0.90;;
19191;SDS011;9728;48.194;16.346;2024-02-26T14:56:25;0.57;;;0.50;;
19191;SDS011;9728;48.194;16.346;2024-02-26T15:01:28;1.02;;;0.60;;
19191;SDS011;9728;48.194;16.346;2024-02-26T15:06:33;1.00;;;0.52;;
19191;SDS011;9728;48.194;16.346;2024-02-26T15:11:38;1.10;;;0.45;;
19191;SDS011;9728;48.194;16.346;2024-02-26T15:16:42;0.63;;;0.40;;
19191;SDS011;9728;48.194;16.346;2024-02-26T15:21:47;1.40;;;0.50;;
19191;SDS011;9728;48.194;16.346;2024-02-26T15:26:50;0.90;;;0.60;;
19191;SDS011;9728;48.194;16.346;2024-02-26T15:31:54;0.60;;;0.60;;
19191;SDS011;9728;48.194;16.346;2024-02-26T15:36:58;3.63;;;0.60;;
19191;SDS011;9728;48.194;16.346;2024-02-26T15:42:02;0.82;;;0.60;;
19191;SDS011;9728;48.194;16.346;2024-02-26T15:47:06;0.73;;;0.57;;
19191;SDS011;9728;48.194;16.346;2024-02-26T15:52:11;1.42;;;0.75;;
19191;SDS011;9728;48.194;16.346;2024-02-26T15:57:14;0.40;;;0.40;;
19191;SDS011;9728;48.194;16.346;2024-02-26T16:02:19;2.95;;;0.75;;
19191;SDS011;9728;48.194;16.346;2024-02-26T16:07:25;1.98;;;0.68;;
19191;SDS011;9728;48.194;16.346;2024-02-26T16:12:35;2.63;;;0.68;;
19191;SDS011;9728;48.194;16.346;2024-02-26T16:17:41;1.25;;;0.73;;
19191;SDS011;9728;48.194;16.346;2024-02-26T16:22:51;0.82;;;0.70;;
19191;SDS011;9728;48.194;16.346;2024-02-26T16:27:54;1.45;;;0.70;;
19191;SDS011;9728;48.194;16.346;2024-02-26T16:32:58;1.00;;;0.75;;
19191;SDS011;9728;48.194;16.346;2024-02-26T16:38:03;1.45;;;0.93;;
19191;SDS011;9728;48.194;16.346;2024-02-26T16:43:07;1.20;;;0.65;;
19191;SDS011;9728;48.194;16.346;2024-02-26T16:48:10;1.30;;;0.70;;
19191;SDS011;9728;48.194;16.346;2024-02-26T16:53:15;1.75;;;1.00;;
19191;SDS011;9728;48.194;16.346;2024-02-26T16:58:19;1.33;;;0.80;;
19191;SDS011;9728;48.194;16.346;2024-02-26T17:03:25;0.55;;;0.50;;
19191;SDS011;9728;48.194;16.346;2024-02-26T17:08:30;2.05;;;1.10;;
19191;SDS011;9728;48.194;16.346;2024-02-26T17:13:35;2.22;;;0.90;;
19191;SDS011;9728;48.194;16.346;2024-02-26T17:18:38;2.65;;;1.50;;
19191;SDS011;9728;48.194;16.346;2024-02-26T17:23:43;4.63;;;1.38;;
19191;SDS011;9728;48.194;16.346;2024-02-26T17:28:47;1.33;;;0.98;;
19191;SDS011;9728;48.194;16.346;2024-02-26T17:33:50;2.55;;;1.27;;
19191;SDS011;9728;48.194;16.346;2024-02-26T17:38:55;2.97;;;1.35;;
19191;SDS011;9728;48.194;16.346;2024-02-26T17:43:59;1.00;;;0.90;;
19191;SDS011;9728;48.194;16.346;2024-02-26T17:49:02;1.08;;;0.98;;
19191;SDS011;9728;48.194;16.346;2024-02-26T17:54:08;1.10;;;1.00;;
19191;SDS011;9728;48.194;16.346;2024-02-26T17:59:11;2.08;;;1.15;;
19191;SDS011;9728;48.194;16.346;2024-02-26T18:04:15;2.60;;;1.30;;
19191;SDS011;9728;48.194;16.346;2024-02-26T18:09:20;1.48;;;0.98;;
19191;SDS011;9728;48.194;16.346;2024-02-26T18:14:24;1.00;;;0.90;;
19191;SDS011;9728;48.194;16.346;2024-02-26T18:19:27;1.80;;;1.10;;
19191;SDS011;9728;48.194;16.346;2024-02-26T18:24:32;1.23;;;1.00;;
19191;SDS011;9728;48.194;16.346;2024-02-26T18:29:37;1.52;;;1.08;;
19191;SDS011;9728;48.194;16.346;2024-02-26T18:34:42;3.00;;;1.50;;
19191;SDS011;9728;48.194;16.346;2024-02-26T18:39:48;1.42;;;0.93;;
19191;SDS011;9728;48.194;16.346;2024-02-26T18:44:55;1.15;;;0.95;;
19191;SDS011;9728;48.194;16.346;2024-02-26T18:50:01;1.55;;;1.00;;
19191;SDS011;9728;48.194;16.346;2024-02-26T18:55:08;1.13;;;0.95;;
19191;SDS011;9728;48.194;16.346;2024-02-26T19:00:14;1.88;;;1.08;;
19191;SDS011;9728;48.194;16.346;2024-02-26T19:05:20;2.55;;;1.05;;
19191;SDS011;9728;48.194;16.346;2024-02-26T19:10:30;1.58;;;1.00;;
19191;SDS011;9728;48.194;16.346;2024-02-26T19:15:36;1.85;;;1.10;;
19191;SDS011;9728;48.194;16.346;2024-02-26T19:20:43;2.33;;;1.10;;
19191;SDS011;9728;48.194;16.346;2024-02-26T19:25:52;1.20;;;0.80;;
19191;SDS011;9728;48.194;16.346;2024-02-26T19:30:58;1.70;;;1.00;;
19191;SDS011;9728;48.194;16.346;2024-02-26T19:36:06;1.40;;;1.10;;
19191;SDS011;9728;48.194;16.346;2024-02-26T19:41:14;1.95;;;1.20;;
19191;SDS011;9728;48.194;16.346;2024-02-26T19:46:20;2.53;;;1.10;;
19191;SDS011;9728;48.194;16.346;2024-02-26T19:51:26;2.50;;;1.35;;
19191;SDS011;9728;48.194;16.346;2024-02-26T19:56:36;1.70;;;0.93;;
19191;SDS011;9728;48.194;16.346;2024-02-26T20:01:48;1.58;;;0.80;;
19191;SDS011;9728;48.194;16.346;2024-02-26T20:06:54;1.33;;;0.82;;
19191;SDS011;9728;48.194;16.346;2024-02-26T20:12:03;1.33;;;0.90;;
19191;SDS011;9728;48.194;16.346;2024-02-26T20:17:10;1.30;;;0.90;;
19191;SDS011;9728;48.194;16.346;2024-02-26T20:22:17;0.93;;;0.88;;
19191;SDS011;9728;48.194;16.346;2024-02-26T20:27:25;1.13;;;0.80;;
19191;SDS011;9728;48.194;16.346;2024-02-26T20:32:30;1.45;;;0.90;;
19191;SDS011;9728;48.194;16.346;2024-02-26T20:37:36;3.17;;;1.52;;
19191;SDS011;9728;48.194;16.346;2024-02-26T20:42:44;1.60;;;0.85;;
19191;SDS011;9728;48.194;16.346;2024-02-26T20:47:50;2.17;;;0.88;;
19191;SDS011;9728;48.194;16.346;2024-02-26T20:52:57;1.35;;;1.10;;
19191;SDS011;9728;48.194;16.346;2024-02-26T20:58:04;1.33;;;0.95;;
19191;SDS011;9728;48.194;16.346;2024-02-26T21:03:10;1.35;;;0.80;;
19191;SDS011;9728;48.194;16.346;2024-02-26T21:08:15;1.10;;;0.80;;
19191;SDS011;9728;48.194;16.346;2024-02-26T21:13:38;0.93;;;0.77;;
19191;SDS011;9728;48.194;16.346;2024-02-26T21:18:43;1.58;;;1.17;;
19191;SDS011;9728;48.194;16.346;2024-02-26T21:23:47;1.50;;;1.02;;
19191;SDS011;9728;48.194;16.346;2024-02-26T21:28:52;1.13;;;0.80;;
19191;SDS011;9728;48.194;16.346;2024-02-26T21:33:55;1.65;;;0.70;;
19191;SDS011;9728;48.194;16.346;2024-02-26T21:38:59;0.90;;;0.70;;
19191;SDS011;9728;48.194;16.346;2024-02-26T21:44:04;1.27;;;0.82;;
19191;SDS011;9728;48.194;16.346;2024-02-26T21:49:08;1.40;;;0.75;;
19191;SDS011;9728;48.194;16.346;2024-02-26T21:54:12;0.70;;;0.70;;
19191;SDS011;9728;48.194;16.346;2024-02-26T21:59:17;0.63;;;0.60;;
19191;SDS011;9728;48.194;16.346;2024-02-26T22:04:20;1.10;;;0.90;;
19191;SDS011;9728;48.194;16.346;2024-02-26T22:09:24;1.45;;;1.00;;
19191;SDS011;9728;48.194;16.346;2024-02-26T22:14:30;0.85;;;0.77;;
19191;SDS011;9728;48.194;16.346;2024-02-26T22:19:34;1.17;;;0.90;;
19191;SDS011;9728;48.194;16.346;2024-02-26T22:24:37;1.10;;;0.90;;
19191;SDS011;9728;48.194;16.346;2024-02-26T22:29:42;2.50;;;1.02;;
19191;SDS011;9728;48.194;16.346;2024-02-26T22:34:45;0.80;;;0.80;;
19191;SDS011;9728;48.194;16.346;2024-02-26T22:39:49;1.55;;;0.82;;
19191;SDS011;9728;48.194;16.346;2024-02-26T22:44:54;1.80;;;1.20;;
19191;SDS011;9728;48.194;16.346;2024-02-26T22:49:57;0.82;;;0.70;;
19191;SDS011;9728;48.194;16.346;2024-02-26T22:55:01;1.77;;;0.93;;
19191;SDS011;9728;48.194;16.346;2024-02-26T23:00:06;1.60;;;0.90;;
19191;SDS011;9728;48.194;16.346;2024-02-26T23:05:22;2.40;;;1.00;;
19191;SDS011;9728;48.194;16.346;2024-02-26T23:10:26;1.88;;;0.88;;
19191;SDS011;9728;48.194;16.346;2024-02-26T23:15:30;1.27;;;0.80;;
19191;SDS011;9728;48.194;16.346;2024-02-26T23:20:35;1.45;;;1.00;;
19191;SDS011;9728;48.194;16.346;2024-02-26T23:25:38;1.58;;;0.70;;
19191;SDS011;9728;48.194;16.346;2024-02-26T23:30:43;2.03;;;0.98;;
19191;SDS011;9728;48.194;16.346;2024-02-26T23:35:46;0.80;;;0.80;;
19191;SDS011;9728;48.194;16.346;2024-02-26T23:40:50;0.98;;;0.88;;
19191;SDS011;9728;48.194;16.346;2024-02-26T23:45:55;0.90;;;0.80;;
19191;SDS011;9728;48.194;16.346;2024-02-26T23:50:58;1.08;;;0.80;;
19191;SDS011;9728;48.194;16.346;2024-02-26T23:56:02;1.17;;;0.90;;
